EST,Max TemperatureF,Mean TemperatureF,Min TemperatureF,Max Dew PointF,MeanDew PointF,Min DewpointF,Max Humidity, Mean Humidity, Min Humidity, Max Sea Level PressureIn, Mean Sea Level PressureIn, Min Sea Level PressureIn, Max VisibilityMiles, Mean VisibilityMiles, Min VisibilityMiles, Max Wind SpeedMPH, Mean Wind SpeedMPH, Max Gust SpeedMPH,PrecipitationIn, CloudCover, Events, WindDirDegrees
2012-12-1,69,50,30,54,40,30,100,87,49,30.40,30.34,30.30,10,7,1,6,0,,0.00,3,,244
2012-12-2,77,57,37,63,46,37,100,88,53,30.39,30.33,30.27,10,8,3,9,1,,0.00,5,,257
2012-12-3,71,53,35,57,46,36,100,83,46,30.35,30.30,30.23,10,7,0,9,1,,0.00,3,,259
2012-12-4,71,56,41,63,51,41,100,88,60,30.34,30.28,30.22,10,8,0,8,1,,0.03,5,,253
2012-12-5,63,58,54,62,57,54,100,98,88,30.24,30.19,30.15,10,8,2,5,0,,0.09,8,,263
2012-12-6,64,55,47,57,53,46,100,91,69,30.20,30.16,30.12,10,9,7,5,0,,0.01,8,,60
2012-12-7,65,57,49,56,52,49,100,88,65,30.12,30.06,29.98,10,10,10,10,1,,0.00,7,,266
2012-12-8,65,59,53,57,54,52,98,89,73,30.06,30.03,30.00,10,10,5,7,1,,0.00,8,,259
2012-12-9,66,60,53,62,56,53,100,90,70,30.10,30.05,29.98,10,7,0,8,1,,0.01,8,,236
2012-12-10,61,54,45,60,56,44,100,96,87,29.97,29.81,29.72,10,8,2,13,2,16,1.42,8,,254
2012-12-11,44,38,32,44,35,31,99,86,70,30.15,30.01,29.85,10,10,7,10,5,,0.01,4,,350
2012-12-12,47,40,32,41,36,32,100,94,72,30.26,30.21,30.15,10,7,2,7,1,,0.00,3,,240
2012-12-13,55,42,29,44,35,30,100,91,54,30.36,30.30,30.23,10,5,0,10,1,,0.00,4,,262
2012-12-14,58,42,26,40,33,26,100,86,44,30.38,30.29,30.21,10,8,1,8,1,,0.00,0,,253
2012-12-15,60,47,34,45,39,33,99,78,46,30.23,30.14,30.06,10,10,7,8,1,,0.00,4,,246
2012-12-16,55,52,48,55,52,45,100,99,83,30.07,29.99,29.88,10,5,1,6,1,,1.67,8,,46
2012-12-17,56,50,46,55,51,47,100,99,88,29.86,29.78,29.69,10,6,0,9,2,,0.23,7,,261
2012-12-18,55,42,30,51,37,27,100,77,34,30.03,29.89,29.71,10,10,2,12,2,,0.01,3,,245
2012-12-19,61,44,28,48,36,28,100,87,51,30.11,30.07,30.03,10,9,2,5,0,,0.00,0,,272
2012-12-20,57,44,34,50,40,27,100,85,49,30.08,29.85,29.63,10,8,1,24,4,36,0.94,7,,260
2012-12-21,38,33,28,29,22,14,79,62,46,30.11,29.94,29.80,10,10,5,20,11,29,0.00,6,,262
2012-12-22,50,34,18,23,17,6,94,61,17,30.22,30.18,30.11,10,10,10,10,3,16,0.00,0,,240
2012-12-23,52,36,20,39,28,19,95,79,37,30.20,30.13,30.06,10,10,7,7,0,,0.01,3,,281
2012-12-24,48,44,40,48,44,40,100,100,97,30.06,29.93,29.85,10,4,2,0,0,,1.46,8,,-1
2012-12-25,54,48,43,50,47,43,100,97,81,30.03,29.95,29.81,10,6,0,6,0,,0.17,6,,75
2012-12-26,58,44,32,50,40,28,100,85,72,29.92,29.65,29.43,10,9,2,28,8,41,0.78,8,,222
2012-12-27,42,36,28,33,30,28,98,84,62,30.08,30.02,29.91,10,10,7,10,4,,0.00,3,,57
2012-12-28,50,38,27,41,33,23,99,85,35,30.11,30.01,29.88,10,8,3,0,0,,0.29,5,,-1
2012-12-29,43,36,31,40,34,23,100,88,68,30.18,29.91,29.77,10,8,2,15,4,22,0.15,8,,256
2012-12-30,45,35,25,29,23,16,96,69,31,30.40,30.33,30.18,10,10,7,14,6,23,0.00,1,,60
2012-12-31,49,36,23,34,27,20,98,76,32,30.37,30.28,30.13,10,10,5,7,0,,0.00,3,,273